sensor_id;sensor_type;location;lat;lon;timestamp;pressure;altitude;pressure_sealevel;temperature;humidity
33404;BME280;19751;40.274;18.268;2024-01-11T00:01:29;101887.78;;;10.15;100.00
33404;BME280;19751;40.274;18.268;2024-01-11T00:03:54;101887.28;;;10.12;100.00
33404;BME280;19751;40.274;18.268;2024-01-11T00:06:20;101886.59;;;10.10;100.00
33404;BME280;19751;40.274;18.268;2024-01-11T00:08:45;101887.22;;;10.04;100.00
33404;BME280;19751;40.274;18.268;2024-01-11T00:11:11;101878.47;;;10.02;100.00
33404;BME280;19751;40.274;18.268;2024-01-11T00:13:36;101881.47;;;9.99;100.00
33404;BME280;19751;40.274;18.268;2024-01-11T00:16:02;101875.88;;;9.92;100.00
33404;BME280;19751;40.274;18.268;2024-01-11T00:18:27;101881.09;;;9.93;100.00
33404;BME280;19751;40.274;18.268;2024-01-11T00:20:53;101870.03;;;9.96;100.00
33404;BME280;19751;40.274;18.268;2024-01-11T00:23:19;101876.59;;;10.02;100.00
33404;BME280;19751;40.274;18.268;2024-01-11T00:25:44;101877.97;;;10.06;100.00
33404;BME280;19751;40.274;18.268;2024-01-11T00:28:10;101874.28;;;10.07;100.00
33404;BME280;19751;40.274;18.268;2024-01-11T00:30:35;101877.13;;;10.06;100.00
33404;BME280;19751;40.274;18.268;2024-01-11T00:33:01;101863.16;;;10.02;100.00
33404;BME280;19751;40.274;18.268;2024-01-11T00:35:26;101857.41;;;9.97;100.00
33404;BME280;19751;40.274;18.268;2024-01-11T00:37:51;101864.94;;;9.93;100.00
33404;BME280;19751;40.274;18.268;2024-01-11T00:40:17;101855.50;;;9.89;100.00
33404;BME280;19751;40.274;18.268;2024-01-11T00:42:43;101861.34;;;9.85;100.00
33404;BME280;19751;40.274;18.268;2024-01-11T00:45:08;101867.75;;;9.84;100.00
33404;BME280;19751;40.274;18.268;2024-01-11T00:47:34;101859.50;;;9.85;100.00
33404;BME280;19751;40.274;18.268;2024-01-11T00:49:59;101855.81;;;9.86;100.00
33404;BME280;19751;40.274;18.268;2024-01-11T00:52:25;101860.50;;;9.84;100.00
33404;BME280;19751;40.274;18.268;2024-01-11T00:54:50;101858.84;;;9.83;100.00
33404;BME280;19751;40.274;18.268;2024-01-11T00:57:16;101854.44;;;9.82;100.00
33404;BME280;19751;40.274;18.268;2024-01-11T00:59:41;101851.38;;;9.77;100.00
33404;BME280;19751;40.274;18.268;2024-01-11T01:02:07;101855.38;;;9.73;100.00
33404;BME280;19751;40.274;18.268;2024-01-11T01:04:32;101849.31;;;9.71;100.00
33404;BME280;19751;40.274;18.268;2024-01-11T01:06:58;101850.16;;;9.71;100.00
33404;BME280;19751;40.274;18.268;2024-01-11T01:09:23;101850.00;;;9.73;100.00
33404;BME280;19751;40.274;18.268;2024-01-11T01:11:49;101845.31;;;9.75;100.00
33404;BME280;19751;40.274;18.268;2024-01-11T01:14:14;101842.28;;;9.78;100.00
33404;BME280;19751;40.274;18.268;2024-01-11T01:16:40;101839.59;;;9.78;100.00
33404;BME280;19751;40.274;18.268;2024-01-11T01:19:05;101841.44;;;9.78;100.00
33404;BME280;19751;40.274;18.268;2024-01-11T01:21:31;101839.78;;;9.77;100.00
33404;BME280;19751;40.274;18.268;2024-01-11T01:23:56;101846.00;;;9.77;100.00
33404;BME280;19751;40.274;18.268;2024-01-11T01:26:22;101841.78;;;9.75;100.00
33404;BME280;19751;40.274;18.268;2024-01-11T01:28:48;101847.31;;;9.73;100.00
33404;BME280;19751;40.274;18.268;2024-01-11T01:31:13;101844.91;;;9.70;100.00
33404;BME280;19751;40.274;18.268;2024-01-11T01:33:40;101841.88;;;9.65;100.00
33404;BME280;19751;40.274;18.268;2024-01-11T01:36:08;101844.41;;;9.66;100.00
33404;BME280;19751;40.274;18.268;2024-01-11T01:38:34;101844.06;;;9.69;100.00
33404;BME280;19751;40.274;18.268;2024-01-11T01:41:00;101837.84;;;9.69;100.00
33404;BME280;19751;40.274;18.268;2024-01-11T01:43:25;101844.25;;;9.68;100.00
33404;BME280;19751;40.274;18.268;2024-01-11T01:45:51;101842.22;;;9.70;100.00
33404;BME280;19751;40.274;18.268;2024-01-11T01:48:17;101844.63;;;9.73;100.00
33404;BME280;19751;40.274;18.268;2024-01-11T01:50:42;101848.00;;;9.75;100.00
33404;BME280;19751;40.274;18.268;2024-01-11T01:53:10;101844.13;;;9.78;100.00
33404;BME280;19751;40.274;18.268;2024-01-11T01:55:36;101846.53;;;9.81;100.00
33404;BME280;19751;40.274;18.268;2024-01-11T01:58:03;101837.44;;;9.82;100.00
33404;BME280;19751;40.274;18.268;2024-01-11T02:00:29;101833.75;;;9.83;100.00
33404;BME280;19751;40.274;18.268;2024-01-11T02:02:55;101840.00;;;9.83;100.00
33404;BME280;19751;40.274;18.268;2024-01-11T02:05:21;101839.13;;;9.83;100.00
33404;BME280;19751;40.274;18.268;2024-01-11T02:07:47;101832.22;;;9.80;100.00
33404;BME280;19751;40.274;18.268;2024-01-11T02:10:13;101833.25;;;9.79;100.00
33404;BME280;19751;40.274;18.268;2024-01-11T02:12:39;101826.16;;;9.78;100.00
33404;BME280;19751;40.274;18.268;2024-01-11T02:15:06;101826.16;;;9.78;100.00
33404;BME280;19751;40.274;18.268;2024-01-11T02:17:32;101833.25;;;9.79;100.00
33404;BME280;19751;40.274;18.268;2024-01-11T02:19:58;101826.16;;;9.78;100.00
33404;BME280;19751;40.274;18.268;2024-01-11T02:22:35;101819.78;;;9.79;100.00
33404;BME280;19751;40.274;18.268;2024-01-11T02:25:03;101824.47;;;9.77;100.00
33404;BME280;19751;40.274;18.268;2024-01-11T02:27:29;101823.78;;;9.75;100.00
33404;BME280;19751;40.274;18.268;2024-01-11T02:29:54;101816.56;;;9.76;100.00
33404;BME280;19751;40.274;18.268;2024-01-11T02:32:20;101814.53;;;9.78;100.00
33404;BME280;19751;40.274;18.268;2024-01-11T02:34:46;101813.88;;;9.76;100.00
33404;BME280;19751;40.274;18.268;2024-01-11T02:37:12;101816.69;;;9.74;100.00
33404;BME280;19751;40.274;18.268;2024-01-11T02:39:38;101810.34;;;9.75;100.00
33404;BME280;19751;40.274;18.268;2024-01-11T02:42:04;101819.56;;;9.73;100.00
33404;BME280;19751;40.274;18.268;2024-01-11T02:44:30;101815.31;;;9.70;100.00
33404;BME280;19751;40.274;18.268;2024-01-11T02:46:55;101810.97;;;9.69;100.00
33404;BME280;19751;40.274;18.268;2024-01-11T02:49:21;101815.66;;;9.67;100.00
33404;BME280;19751;40.274;18.268;2024-01-11T02:51:46;101804.38;;;9.63;100.00
33404;BME280;19751;40.274;18.268;2024-01-11T02:54:12;101812.56;;;9.62;100.00
33404;BME280;19751;40.274;18.268;2024-01-11T02:56:38;101805.38;;;9.62;100.00
33404;BME280;19751;40.274;18.268;2024-01-11T02:59:03;101807.91;;;9.64;100.00
33404;BME280;19751;40.274;18.268;2024-01-11T03:01:29;101800.50;;;9.66;100.00
33404;BME280;19751;40.274;18.268;2024-01-11T03:03:54;101793.75;;;9.62;100.00
33404;BME280;19751;40.274;18.268;2024-01-11T03:06:20;101797.31;;;9.62;100.00
33404;BME280;19751;40.274;18.268;2024-01-11T03:08:50;101795.75;;;9.60;100.00
33404;BME280;19751;40.274;18.268;2024-01-11T03:11:15;101792.06;;;9.61;100.00
33404;BME280;19751;40.274;18.268;2024-01-11T03:13:44;101799.13;;;9.62;100.00
33404;BME280;19751;40.274;18.268;2024-01-11T03:16:09;101791.06;;;9.62;100.00
33404;BME280;19751;40.274;18.268;2024-01-11T03:18:35;101791.22;;;9.60;100.00
33404;BME280;19751;40.274;18.268;2024-01-11T03:21:00;101793.06;;;9.60;100.00
33404;BME280;19751;40.274;18.268;2024-01-11T03:23:26;101796.06;;;9.57;100.00
33404;BME280;19751;40.274;18.268;2024-01-11T03:25:51;101786.50;;;9.54;100.00
33404;BME280;19751;40.274;18.268;2024-01-11T03:28:17;101790.84;;;9.55;100.00
33404;BME280;19751;40.274;18.268;2024-01-11T03:30:43;101782.78;;;9.55;100.00
33404;BME280;19751;40.274;18.268;2024-01-11T03:33:08;101783.09;;;9.52;100.00
33404;BME280;19751;40.274;18.268;2024-01-11T03:35:34;101774.50;;;9.49;100.00
33404;BME280;19751;40.274;18.268;2024-01-11T03:37:59;101778.19;;;9.48;100.00
33404;BME280;19751;40.274;18.268;2024-01-11T03:40:25;101777.81;;;9.42;100.00
33404;BME280;19751;40.274;18.268;2024-01-11T03:42:51;101777.81;;;9.42;100.00
33404;BME280;19751;40.274;18.268;2024-01-11T03:45:19;101777.81;;;9.42;100.00
33404;BME280;19751;40.274;18.268;2024-01-11T03:47:45;101770.59;;;9.43;100.00
33404;BME280;19751;40.274;18.268;2024-01-11T03:50:10;101767.06;;;9.42;100.00
33404;BME280;19751;40.274;18.268;2024-01-11T03:52:36;101768.91;;;9.42;100.00
33404;BME280;19751;40.274;18.268;2024-01-11T03:55:01;101762.00;;;9.39;100.00
33404;BME280;19751;40.274;18.268;2024-01-11T03:57:27;101762.00;;;9.39;100.00
33404;BME280;19751;40.274;18.268;2024-01-11T03:59:52;101760.31;;;9.38;100.00
33404;BME280;19751;40.274;18.268;2024-01-11T04:02:19;101748.72;;;9.38;100.00
33404;BME280;19751;40.274;18.268;2024-01-11T04:04:44;101756.91;;;9.36;100.00
33404;BME280;19751;40.274;18.268;2024-01-11T04:07:10;101757.63;;;9.38;100.00
33404;BME280;19751;40.274;18.268;2024-01-11T04:09:37;101755.25;;;9.35;100.00
33404;BME280;19751;40.274;18.268;2024-01-11T04:12:04;101755.41;;;9.34;100.00
33404;BME280;19751;40.274;18.268;2024-01-11T04:14:29;101750.03;;;9.34;100.00
33404;BME280;19751;40.274;18.268;2024-01-11T04:16:55;101751.19;;;9.31;100.00
33404;BME280;19751;40.274;18.268;2024-01-11T04:19:20;101754.72;;;9.32;100.00
33404;BME280;19751;40.274;18.268;2024-01-11T04:21:46;101754.03;;;9.30;100.00
33404;BME280;19751;40.274;18.268;2024-01-11T04:24:11;101749.63;;;9.29;100.00
33404;BME280;19751;40.274;18.268;2024-01-11T04:26:37;101752.19;;;9.30;100.00
33404;BME280;19751;40.274;18.268;2024-01-11T04:29:02;101760.38;;;9.29;100.00
33404;BME280;19751;40.274;18.268;2024-01-11T04:31:28;101759.00;;;9.25;100.00
33404;BME280;19751;40.274;18.268;2024-01-11T04:33:54;101752.78;;;9.24;100.00
33404;BME280;19751;40.274;18.268;2024-01-11T04:36:19;101753.81;;;9.23;100.00
33404;BME280;19751;40.274;18.268;2024-01-11T04:38:45;101751.41;;;9.20;100.00
33404;BME280;19751;40.274;18.268;2024-01-11T04:41:11;101751.75;;;9.17;100.00
33404;BME280;19751;40.274;18.268;2024-01-11T04:43:42;101750.38;;;9.13;100.00
33404;BME280;19751;40.274;18.268;2024-01-11T04:46:18;101741.59;;;9.11;100.00
33404;BME280;19751;40.274;18.268;2024-01-11T04:48:44;101744.47;;;9.09;100.00
33404;BME280;19751;40.274;18.268;2024-01-11T04:51:11;101744.75;;;9.06;100.00
33404;BME280;19751;40.274;18.268;2024-01-11T04:53:38;101742.38;;;9.03;100.00
33404;BME280;19751;40.274;18.268;2024-01-11T04:56:04;101746.06;;;9.02;100.00
33404;BME280;19751;40.274;18.268;2024-01-11T04:58:30;101738.31;;;8.99;100.00
33404;BME280;19751;40.274;18.268;2024-01-11T05:00:55;101749.06;;;8.99;100.00
33404;BME280;19751;40.274;18.268;2024-01-11T05:03:21;101750.22;;;8.96;100.00
33404;BME280;19751;40.274;18.268;2024-01-11T05:05:46;101754.91;;;8.94;100.00
33404;BME280;19751;40.274;18.268;2024-01-11T05:08:12;101754.22;;;8.92;100.00
33404;BME280;19751;40.274;18.268;2024-01-11T05:10:38;101750.84;;;8.90;100.00
33404;BME280;19751;40.274;18.268;2024-01-11T05:13:03;101752.97;;;8.87;100.00
33404;BME280;19751;40.274;18.268;2024-01-11T05:15:29;101756.00;;;8.84;100.00
33404;BME280;19751;40.274;18.268;2024-01-11T05:17:58;101757.13;;;8.81;100.00
33404;BME280;19751;40.274;18.268;2024-01-11T05:20:23;101747.53;;;8.79;100.00
33404;BME280;19751;40.274;18.268;2024-01-11T05:22:49;101758.28;;;8.79;100.00
33404;BME280;19751;40.274;18.268;2024-01-11T05:25:14;101757.44;;;8.78;100.00
33404;BME280;19751;40.274;18.268;2024-01-11T05:27:40;101751.50;;;8.75;100.00
33404;BME280;19751;40.274;18.268;2024-01-11T05:30:06;101749.28;;;8.70;100.00
33404;BME280;19751;40.274;18.268;2024-01-11T05:32:32;101754.44;;;8.63;100.00
33404;BME280;19751;40.274;18.268;2024-01-11T05:34:57;101755.19;;;8.56;100.00
33404;BME280;19751;40.274;18.268;2024-01-11T05:37:23;101761.16;;;8.50;100.00
33404;BME280;19751;40.274;18.268;2024-01-11T05:39:48;101760.19;;;8.51;100.00
33404;BME280;19751;40.274;18.268;2024-01-11T05:42:14;101754.19;;;8.57;100.00
33404;BME280;19751;40.274;18.268;2024-01-11T05:44:39;101753.19;;;8.58;100.00
33404;BME280;19751;40.274;18.268;2024-01-11T05:47:05;101763.94;;;8.58;100.00
33404;BME280;19751;40.274;18.268;2024-01-11T05:49:31;101762.41;;;8.55;100.00
33404;BME280;19751;40.274;18.268;2024-01-11T05:51:56;101758.19;;;8.53;100.00
33404;BME280;19751;40.274;18.268;2024-01-11T05:54:22;101766.22;;;8.53;100.00
33404;BME280;19751;40.274;18.268;2024-01-11T05:56:47;101768.63;;;8.56;100.00
33404;BME280;19751;40.274;18.268;2024-01-11T05:59:13;101774.00;;;8.56;100.00
33404;BME280;19751;40.274;18.268;2024-01-11T06:01:41;101774.53;;;8.59;100.00
33404;BME280;19751;40.274;18.268;2024-01-11T06:04:07;101762.63;;;8.62;100.00
33404;BME280;19751;40.274;18.268;2024-01-11T06:06:32;101765.03;;;8.65;100.00
33404;BME280;19751;40.274;18.268;2024-01-11T06:08:58;101766.88;;;8.64;100.00
33404;BME280;19751;40.274;18.268;2024-01-11T06:11:23;101767.03;;;8.63;100.00
33404;BME280;19751;40.274;18.268;2024-01-11T06:13:49;101762.09;;;8.58;100.00
33404;BME280;19751;40.274;18.268;2024-01-11T06:16:15;101762.41;;;8.55;100.00
33404;BME280;19751;40.274;18.268;2024-01-11T06:18:40;101769.22;;;8.50;100.00
33404;BME280;19751;40.274;18.268;2024-01-11T06:21:06;101768.97;;;8.43;100.00
33404;BME280;19751;40.274;18.268;2024-01-11T06:23:31;101763.91;;;8.40;100.00
33404;BME280;19751;40.274;18.268;2024-01-11T06:25:57;101760.38;;;8.39;100.00
33404;BME280;19751;40.274;18.268;2024-01-11T06:28:22;101756.69;;;8.40;100.00
33404;BME280;19751;40.274;18.268;2024-01-11T06:30:48;101764.63;;;8.42;100.00
33404;BME280;19751;40.274;18.268;2024-01-11T06:33:13;101759.53;;;8.39;100.00
33404;BME280;19751;40.274;18.268;2024-01-11T06:35:39;101760.66;;;8.36;100.00
33404;BME280;19751;40.274;18.268;2024-01-11T06:38:05;101760.09;;;8.33;100.00
33404;BME280;19751;40.274;18.268;2024-01-11T06:40:30;101759.25;;;8.32;100.00
33404;BME280;19751;40.274;18.268;2024-01-11T06:42:56;101762.09;;;8.31;100.00
33404;BME280;19751;40.274;18.268;2024-01-11T06:45:21;101760.25;;;8.31;100.00
33404;BME280;19751;40.274;18.268;2024-01-11T06:47:47;101763.78;;;8.32;100.00
33404;BME280;19751;40.274;18.268;2024-01-11T06:50:14;101762.78;;;8.33;100.00
33404;BME280;19751;40.274;18.268;2024-01-11T06:52:39;101763.31;;;8.36;100.00
33404;BME280;19751;40.274;18.268;2024-01-11T06:55:05;101764.91;;;8.39;100.00
33404;BME280;19751;40.274;18.268;2024-01-11T06:57:31;101772.66;;;8.42;100.00
33404;BME280;19751;40.274;18.268;2024-01-11T06:59:56;101773.97;;;8.38;100.00
33404;BME280;19751;40.274;18.268;2024-01-11T07:02:22;101766.88;;;8.37;100.00
33404;BME280;19751;40.274;18.268;2024-01-11T07:04:48;101769.44;;;8.38;100.00
33404;BME280;19751;40.274;18.268;2024-01-11T07:07:13;101766.75;;;8.38;100.00
33404;BME280;19751;40.274;18.268;2024-01-11T07:09:39;101765.91;;;8.38;100.00
33404;BME280;19751;40.274;18.268;2024-01-11T07:12:05;101766.75;;;8.38;100.00
33404;BME280;19751;40.274;18.268;2024-01-11T07:14:30;101766.44;;;8.41;100.00
33404;BME280;19751;40.274;18.268;2024-01-11T07:16:57;101761.47;;;8.46;100.00
33404;BME280;19751;40.274;18.268;2024-01-11T07:19:22;101759.31;;;8.50;100.00
33404;BME280;19751;40.274;18.268;2024-01-11T07:21:48;101757.50;;;8.51;100.00
33404;BME280;19751;40.274;18.268;2024-01-11T07:24:13;101765.38;;;8.52;100.00
33404;BME280;19751;40.274;18.268;2024-01-11T07:26:39;101765.94;;;8.56;100.00
33404;BME280;19751;40.274;18.268;2024-01-11T07:29:05;101761.25;;;8.58;100.00
33404;BME280;19751;40.274;18.268;2024-01-11T07:31:30;101766.47;;;8.59;100.00
33404;BME280;19751;40.274;18.268;2024-01-11T07:33:56;101770.41;;;8.65;100.00
33404;BME280;19751;40.274;18.268;2024-01-11T07:36:21;101766.41;;;8.69;100.00
33404;BME280;19751;40.274;18.268;2024-01-11T07:38:47;101773.16;;;8.73;100.00
33404;BME280;19751;40.274;18.268;2024-01-11T07:41:13;101773.00;;;8.75;100.00
33404;BME280;19751;40.274;18.268;2024-01-11T07:43:40;101764.50;;;8.79;100.00
33404;BME280;19751;40.274;18.268;2024-01-11T07:46:05;101767.56;;;8.84;100.00
33404;BME280;19751;40.274;18.268;2024-01-11T07:48:32;101763.25;;;8.91;100.00
33404;BME280;19751;40.274;18.268;2024-01-11T07:50:59;101766.03;;;9.00;100.00
33404;BME280;19751;40.274;18.268;2024-01-11T07:53:25;101770.50;;;9.09;100.00
33404;BME280;19751;40.274;18.268;2024-01-11T07:55:51;101758.09;;;9.16;100.00
33404;BME280;19751;40.274;18.268;2024-01-11T07:58:17;101753.81;;;9.23;100.00
33404;BME280;19751;40.274;18.268;2024-01-11T08:00:42;101749.50;;;9.30;100.00
33404;BME280;19751;40.274;18.268;2024-01-11T08:03:08;101751.53;;;9.36;100.00
33404;BME280;19751;40.274;18.268;2024-01-11T08:05:34;101758.28;;;9.40;100.00
33404;BME280;19751;40.274;18.268;2024-01-11T08:07:59;101756.84;;;9.46;100.00
33404;BME280;19751;40.274;18.268;2024-01-11T08:10:27;101752.50;;;9.53;100.00
33404;BME280;19751;40.274;18.268;2024-01-11T08:12:52;101752.72;;;9.60;100.00
33404;BME280;19751;40.274;18.268;2024-01-11T08:15:18;101750.56;;;9.63;100.00
33404;BME280;19751;40.274;18.268;2024-01-11T08:17:47;101749.25;;;9.67;100.00
33404;BME280;19751;40.274;18.268;2024-01-11T08:20:12;101753.13;;;9.73;100.00
33404;BME280;19751;40.274;18.268;2024-01-11T08:22:42;101745.44;;;9.78;100.00
33404;BME280;19751;40.274;18.268;2024-01-11T08:25:09;101755.41;;;9.86;100.00
33404;BME280;19751;40.274;18.268;2024-01-11T08:27:34;101757.59;;;9.90;100.00
33404;BME280;19751;40.274;18.268;2024-01-11T08:30:00;101754.28;;;9.96;100.00
33404;BME280;19751;40.274;18.268;2024-01-11T08:32:26;101749.25;;;10.02;100.00
33404;BME280;19751;40.274;18.268;2024-01-11T08:34:52;101749.59;;;10.07;100.00
33404;BME280;19751;40.274;18.268;2024-01-11T08:37:17;101755.03;;;10.15;100.00
33404;BME280;19751;40.274;18.268;2024-01-11T08:39:43;101760.09;;;10.18;100.00
33404;BME280;19751;40.274;18.268;2024-01-11T08:42:11;101756.91;;;10.23;100.00
33404;BME280;19751;40.274;18.268;2024-01-11T08:44:43;101751.91;;;10.28;100.00
33404;BME280;19751;40.274;18.268;2024-01-11T08:47:10;101760.19;;;10.34;100.00
33404;BME280;19751;40.274;18.268;2024-01-11T08:49:39;101753.47;;;10.38;100.00
33404;BME280;19751;40.274;18.268;2024-01-11T08:52:05;101751.31;;;10.42;100.00
33404;BME280;19751;40.274;18.268;2024-01-11T08:54:31;101750.97;;;10.45;100.00
33404;BME280;19751;40.274;18.268;2024-01-11T08:56:58;101740.88;;;10.47;100.00
33404;BME280;19751;40.274;18.268;2024-01-11T08:59:23;101742.22;;;10.51;100.00
33404;BME280;19751;40.274;18.268;2024-01-11T09:01:50;101735.31;;;10.57;100.00
33404;BME280;19751;40.274;18.268;2024-01-11T09:04:16;101737.53;;;10.61;100.00
33404;BME280;19751;40.274;18.268;2024-01-11T09:06:43;101731.66;;;10.66;100.00
33404;BME280;19751;40.274;18.268;2024-01-11T09:09:10;101734.00;;;10.69;100.00
33404;BME280;19751;40.274;18.268;2024-01-11T09:11:36;101731.00;;;10.72;100.00
33404;BME280;19751;40.274;18.268;2024-01-11T09:14:02;101720.72;;;10.76;100.00
33404;BME280;19751;40.274;18.268;2024-01-11T09:16:30;101722.06;;;10.80;100.00
33404;BME280;19751;40.274;18.268;2024-01-11T09:18:56;101718.19;;;10.82;100.00
33404;BME280;19751;40.274;18.268;2024-01-11T09:21:21;101722.09;;;10.88;100.00
33404;BME280;19751;40.274;18.268;2024-01-11T09:23:47;101708.94;;;10.93;100.00
33404;BME280;19751;40.274;18.268;2024-01-11T09:26:13;101703.03;;;10.98;100.00
33404;BME280;19751;40.274;18.268;2024-01-11T09:28:38;101698.84;;;11.03;100.00
33404;BME280;19751;40.274;18.268;2024-01-11T09:31:04;101690.25;;;11.08;100.00
33404;BME280;19751;40.274;18.268;2024-01-11T09:33:30;101700.53;;;11.12;100.00
33404;BME280;19751;40.274;18.268;2024-01-11T09:35:55;101687.53;;;11.16;100.00
33404;BME280;19751;40.274;18.268;2024-01-11T09:38:23;101688.19;;;11.18;100.00
33404;BME280;19751;40.274;18.268;2024-01-11T09:41:11;101678.94;;;11.20;100.00
33404;BME280;19751;40.274;18.268;2024-01-11T09:43:38;101672.34;;;11.23;100.00
33404;BME280;19751;40.274;18.268;2024-01-11T09:46:06;101676.56;;;11.26;100.00
33404;BME280;19751;40.274;18.268;2024-01-11T09:48:35;101663.41;;;11.31;100.00
33404;BME280;19751;40.274;18.268;2024-01-11T09:51:05;101663.72;;;11.36;100.00
33404;BME280;19751;40.274;18.268;2024-01-11T09:53:33;101663.56;;;11.37;100.00
33404;BME280;19751;40.274;18.268;2024-01-11T09:56:00;101656.97;;;11.40;100.00
33404;BME280;19751;40.274;18.268;2024-01-11T09:58:26;101648.72;;;11.41;100.00
33404;BME280;19751;40.274;18.268;2024-01-11T10:00:55;101645.66;;;11.44;100.00
33404;BME280;19751;40.274;18.268;2024-01-11T10:03:24;101648.19;;;11.46;100.00
33404;BME280;19751;40.274;18.268;2024-01-11T10:05:54;101637.22;;;11.48;100.00
33404;BME280;19751;40.274;18.268;2024-01-11T10:08:22;101647.69;;;11.51;100.00
33404;BME280;19751;40.274;18.268;2024-01-11T10:10:48;101637.72;;;11.51;100.00
33404;BME280;19751;40.274;18.268;2024-01-11T10:13:17;101630.31;;;11.53;100.00
33404;BME280;19751;40.274;18.268;2024-01-11T10:15:43;101632.81;;;11.55;100.00
33404;BME280;19751;40.274;18.268;2024-01-11T10:18:09;101626.41;;;11.56;100.00
33404;BME280;19751;40.274;18.268;2024-01-11T10:20:35;101620.00;;;11.57;100.00
33404;BME280;19751;40.274;18.268;2024-01-11T10:23:02;101621.50;;;11.59;100.00
33404;BME280;19751;40.274;18.268;2024-01-11T10:25:28;101615.94;;;11.61;100.00
33404;BME280;19751;40.274;18.268;2024-01-11T10:27:54;101619.13;;;11.64;100.00
33404;BME280;19751;40.274;18.268;2024-01-11T10:30:19;101609.84;;;11.67;100.00
33404;BME280;19751;40.274;18.268;2024-01-11T10:32:47;101612.19;;;11.70;100.00
33404;BME280;19751;40.274;18.268;2024-01-11T10:35:13;101599.34;;;11.72;100.00
33404;BME280;19751;40.274;18.268;2024-01-11T10:37:39;101594.63;;;11.74;100.00
33404;BME280;19751;40.274;18.268;2024-01-11T10:40:07;101595.09;;;11.78;100.00
33404;BME280;19751;40.274;18.268;2024-01-11T10:42:50;101591.91;;;11.82;100.00
33404;BME280;19751;40.274;18.268;2024-01-11T10:45:20;101588.84;;;11.85;100.00
33404;BME280;19751;40.274;18.268;2024-01-11T10:48:02;101588.16;;;11.91;100.00
33404;BME280;19751;40.274;18.268;2024-01-11T10:50:37;101572.59;;;11.93;100.00
33404;BME280;19751;40.274;18.268;2024-01-11T10:55:53;101565.28;;;12.02;100.00
33404;BME280;19751;40.274;18.268;2024-01-11T10:58:21;101560.56;;;12.04;100.00
33404;BME280;19751;40.274;18.268;2024-01-11T11:00:49;101547.06;;;12.04;100.00
33404;BME280;19751;40.274;18.268;2024-01-11T11:03:18;101547.91;;;12.05;100.00
33404;BME280;19751;40.274;18.268;2024-01-11T11:05:48;101546.03;;;12.05;100.00
33404;BME280;19751;40.274;18.268;2024-01-11T11:08:16;101540.84;;;12.04;100.00
33404;BME280;19751;40.274;18.268;2024-01-11T11:10:44;101545.41;;;12.03;100.00
33404;BME280;19751;40.274;18.268;2024-01-11T11:13:15;101544.56;;;12.03;100.00
33404;BME280;19751;40.274;18.268;2024-01-11T11:15:45;101531.72;;;12.05;100.00
33404;BME280;19751;40.274;18.268;2024-01-11T11:18:15;101533.38;;;12.06;100.00
33404;BME280;19751;40.274;18.268;2024-01-11T11:20:42;101533.38;;;12.06;100.00
33404;BME280;19751;40.274;18.268;2024-01-11T11:23:08;101528.81;;;12.06;100.00
33404;BME280;19751;40.274;18.268;2024-01-11T11:25:39;101526.78;;;12.08;100.00
33404;BME280;19751;40.274;18.268;2024-01-11T11:28:06;101522.22;;;12.09;100.00
33404;BME280;19751;40.274;18.268;2024-01-11T11:30:33;101519.34;;;12.10;100.00
33404;BME280;19751;40.274;18.268;2024-01-11T11:33:08;101517.66;;;12.09;100.00
33404;BME280;19751;40.274;18.268;2024-01-11T11:35:35;101516.00;;;12.08;100.00
33404;BME280;19751;40.274;18.268;2024-01-11T11:38:00;101515.16;;;12.08;100.00
33404;BME280;19751;40.274;18.268;2024-01-11T11:40:38;101512.25;;;12.09;100.00
33404;BME280;19751;40.274;18.268;2024-01-11T11:43:05;101516.63;;;12.10;100.00
33404;BME280;19751;40.274;18.268;2024-01-11T11:45:31;101511.06;;;12.12;100.00
33404;BME280;19751;40.274;18.268;2024-01-11T11:47:57;101510.03;;;12.13;100.00
33404;BME280;19751;40.274;18.268;2024-01-11T11:50:23;101502.78;;;12.13;100.00
33404;BME280;19751;40.274;18.268;2024-01-11T11:52:55;101507.34;;;12.13;100.00
33404;BME280;19751;40.274;18.268;2024-01-11T11:55:25;101504.66;;;12.13;100.00
33404;BME280;19751;40.274;18.268;2024-01-11T11:57:51;101498.41;;;12.12;100.00
33404;BME280;19751;40.274;18.268;2024-01-11T12:00:19;101503.81;;;12.12;100.00
33404;BME280;19751;40.274;18.268;2024-01-11T12:02:46;101499.44;;;12.11;100.00
33404;BME280;19751;40.274;18.268;2024-01-11T12:05:13;101500.63;;;12.09;100.00
33404;BME280;19751;40.274;18.268;2024-01-11T12:07:38;101504.50;;;12.06;100.00
33404;BME280;19751;40.274;18.268;2024-01-11T12:10:04;101492.03;;;12.05;100.00
33404;BME280;19751;40.274;18.268;2024-01-11T12:12:30;101497.63;;;12.04;100.00
33404;BME280;19751;40.274;18.268;2024-01-11T12:14:57;101487.00;;;12.02;100.00
33404;BME280;19751;40.274;18.268;2024-01-11T12:17:24;101483.47;;;12.02;100.00
33404;BME280;19751;40.274;18.268;2024-01-11T12:19:51;101478.06;;;12.02;100.00
33404;BME280;19751;40.274;18.268;2024-01-11T12:22:17;101483.09;;;12.05;100.00
33404;BME280;19751;40.274;18.268;2024-01-11T12:24:42;101465.22;;;12.04;100.00
33404;BME280;19751;40.274;18.268;2024-01-11T12:27:08;101469.41;;;12.06;100.00
33404;BME280;19751;40.274;18.268;2024-01-11T12:29:33;101461.31;;;12.06;100.00
33404;BME280;19751;40.274;18.268;2024-01-11T12:31:59;101463.00;;;12.07;100.00
33404;BME280;19751;40.274;18.268;2024-01-11T12:34:25;101461.78;;;12.10;100.00